Time;durP1;ratioP1;P1;durP2;ratioP2;P2;SDS_P1;SDS_P2;PMS_P1;PMS_P2;Temp;Humidity;BMP_temperature;BMP_pressure;BME280_temperature;BME280_humidity;BME280_pressure;Samples;Min_cycle;Max_cycle;Signal;HPM_P1;HPM_P2
2023/01/30 00:00:29;;;;;;;;;;;;;;;1.91;100.00;98461.25;5115041;28;19987;-63
2023/01/30 00:02:57;;;;;;;;;;;;;;;1.96;100.00;98449.13;5116837;28;20070;-63
2023/01/30 00:05:23;;;;;;;;;;;;;;;1.89;100.00;98448.25;5125250;28;19931;-64
2023/01/30 00:07:50;;;;;;;;;;;;;;;2.03;100.00;98449.97;5114919;28;19924;-64
2023/01/30 00:10:16;;;;;;;;;;;;;;;2.03;100.00;98452.59;5115179;28;19963;-63
2023/01/30 00:12:43;;;;;;;;;;;;;;;1.97;100.00;98453.38;5118302;28;19987;-63
2023/01/30 00:15:10;;;;;;;;;;;;;;;1.92;100.00;98449.72;5118795;28;19970;-63
2023/01/30 00:17:36;;;;;;;;;;;;;;;1.88;100.00;98451.09;5118146;28;19919;-63
2023/01/30 00:20:05;;;;;;;;;;;;;;;1.95;100.00;98441.44;5116213;28;19959;-63
2023/01/30 00:22:31;;;;;;;;;;;;;;;1.87;100.00;98431.84;5114514;28;20481;-63
2023/01/30 00:24:57;;;;;;;;;;;;;;;1.85;100.00;98428.59;5116128;28;19960;-63
2023/01/30 00:27:24;;;;;;;;;;;;;;;1.81;100.00;98424.72;5117944;28;19991;-63
2023/01/30 00:29:50;;;;;;;;;;;;;;;1.91;100.00;98427.84;5117510;28;19963;-64
2023/01/30 00:32:17;;;;;;;;;;;;;;;1.90;100.00;98426.19;5118671;28;19935;-63
2023/01/30 00:34:43;;;;;;;;;;;;;;;2.06;100.00;98425.06;5120670;28;19928;-64
2023/01/30 00:37:11;;;;;;;;;;;;;;;2.04;100.00;98414.69;5122640;28;19931;-64
2023/01/30 00:39:40;;;;;;;;;;;;;;;2.03;100.00;98409.63;5117878;28;19927;-64
2023/01/30 00:47:34;;;;;;;;;;;;;;;1.83;100.00;98414.00;5113954;28;19930;-64
2023/01/30 00:50:01;;;;;;;;;;;;;;;1.77;100.00;98407.69;5114914;28;19935;-64
2023/01/30 00:52:29;;;;;;;;;;;;;;;1.77;100.00;98394.53;5117274;28;19920;-64
2023/01/30 00:54:55;;;;;;;;;;;;;;;1.64;100.00;98389.19;5121450;28;19920;-63
2023/01/30 00:57:22;;;;;;;;;;;;;;;1.78;100.00;98382.16;5113694;28;19920;-64
2023/01/30 00:59:48;;;;;;;;;;;;;;;1.79;100.00;98381.19;5116508;28;19920;-64
2023/01/30 01:02:14;;;;;;;;;;;;;;;1.75;100.00;98387.81;5117381;28;19924;-65
2023/01/30 01:04:43;;;;;;;;;;;;;;;1.76;100.00;98377.13;5117523;28;19924;-64
2023/01/30 01:07:09;;;;;;;;;;;;;;;1.76;100.00;98365.78;5114889;28;19925;-63
2023/01/30 01:09:37;;;;;;;;;;;;;;;1.66;100.00;98363.50;5117161;28;19924;-63
2023/01/30 01:12:04;;;;;;;;;;;;;;;1.84;100.00;98358.50;5117048;28;19963;-63
2023/01/30 01:14:30;;;;;;;;;;;;;;;1.78;100.00;98356.66;5116901;28;19951;-63
2023/01/30 01:16:57;;;;;;;;;;;;;;;1.80;100.00;98361.72;5114993;28;20407;-63
2023/01/30 01:19:23;;;;;;;;;;;;;;;1.83;100.00;98351.59;5112846;28;19950;-63
2023/01/30 01:21:50;;;;;;;;;;;;;;;1.68;100.00;98342.22;5116085;28;20007;-63
2023/01/30 01:24:17;;;;;;;;;;;;;;;1.71;100.00;98358.44;5125266;28;19931;-64
2023/01/30 01:26:44;;;;;;;;;;;;;;;1.86;100.00;98359.13;5110790;28;20558;-64
2023/01/30 01:29:12;;;;;;;;;;;;;;;1.71;100.00;98352.34;5114385;28;19924;-64
2023/01/30 01:31:38;;;;;;;;;;;;;;;1.61;100.00;98361.44;5116531;28;19928;-64
2023/01/30 01:34:04;;;;;;;;;;;;;;;1.60;100.00;98351.94;5116315;28;19924;-64
2023/01/30 01:36:31;;;;;;;;;;;;;;;1.69;100.00;98364.91;5118657;28;19924;-63
2023/01/30 01:38:57;;;;;;;;;;;;;;;1.77;100.00;98354.22;5115042;28;19923;-63
2023/01/30 01:41:23;;;;;;;;;;;;;;;1.88;100.00;98358.94;5093515;28;19959;-63
2023/01/30 01:44:01;;;;;;;;;;;;;;;1.84;100.00;98363.78;5115350;28;19932;-63
2023/01/30 01:46:30;;;;;;;;;;;;;;;1.94;100.00;98369.50;5116578;28;19924;-63
2023/01/30 01:48:58;;;;;;;;;;;;;;;1.85;100.00;98381.22;5113377;28;19967;-63
2023/01/30 01:51:28;;;;;;;;;;;;;;;1.85;100.00;98377.75;5112819;28;19920;-63
2023/01/30 01:53:58;;;;;;;;;;;;;;;1.85;100.00;98386.47;5114720;28;19956;-63
2023/01/30 01:56:25;;;;;;;;;;;;;;;1.83;100.00;98404.28;5116255;28;19959;-63
2023/01/30 01:58:55;;;;;;;;;;;;;;;1.86;100.00;98422.31;5116481;28;19931;-63
2023/01/30 02:01:23;;;;;;;;;;;;;;;1.84;100.00;98418.25;5116318;28;19923;-63
2023/01/30 02:03:52;;;;;;;;;;;;;;;1.65;100.00;98414.50;5113554;28;19963;-63
2023/01/30 02:06:19;;;;;;;;;;;;;;;1.78;100.00;98398.78;5119700;28;19930;-63
2023/01/30 02:08:47;;;;;;;;;;;;;;;1.74;100.00;98409.88;5116393;28;19967;-63
2023/01/30 02:11:17;;;;;;;;;;;;;;;1.69;100.00;98396.50;5115885;28;19927;-63
2023/01/30 02:13:44;;;;;;;;;;;;;;;1.74;100.00;98384.38;5109027;28;19928;-63
2023/01/30 02:16:11;;;;;;;;;;;;;;;1.73;100.00;98374.88;5117564;28;19924;-64
2023/01/30 02:18:40;;;;;;;;;;;;;;;1.77;100.00;98373.47;5116001;28;20680;-63
2023/01/30 02:21:24;;;;;;;;;;;;;;;1.70;100.00;98372.63;5116381;28;19928;-63
2023/01/30 05:31:02;;;;;;;;;;;;;;;1.29;100.00;98154.22;5142957;27;19924;-63
2023/01/30 05:33:32;;;;;;;;;;;;;;;1.28;100.00;98163.13;5161431;27;19924;-63
2023/01/30 05:35:59;;;;;;;;;;;;;;;1.38;100.00;98173.25;5169250;27;19944;-63
2023/01/30 05:38:27;;;;;;;;;;;;;;;1.38;100.00;98165.38;5159973;27;20014;-63
2023/01/30 05:41:02;;;;;;;;;;;;;;;1.41;100.00;98178.13;5164746;27;19942;-63
2023/01/30 05:57:17;;;;;;;;;;;;;;;1.25;100.00;98153.00;5066431;28;19924;-63
2023/01/30 05:59:44;;;;;;;;;;;;;;;1.22;100.00;98161.28;5152415;27;19931;-63
2023/01/30 06:02:13;;;;;;;;;;;;;;;1.31;100.00;98146.13;5164917;27;19930;-63
2023/01/30 06:04:43;;;;;;;;;;;;;;;1.42;100.00;98153.44;5169305;27;19924;-63
2023/01/30 06:07:09;;;;;;;;;;;;;;;1.28;100.00;98144.69;5171104;27;19979;-65
2023/01/30 06:10:02;;;;;;;;;;;;;;;1.30;100.00;98137.41;5160577;27;19949;-63
2023/01/30 06:12:45;;;;;;;;;;;;;;;1.28;100.00;98142.06;5135347;27;19923;-64
2023/01/30 06:15:15;;;;;;;;;;;;;;;1.39;100.00;98140.69;5158964;27;19923;-64
2023/01/30 06:17:42;;;;;;;;;;;;;;;1.47;100.00;98138.69;5168823;27;19974;-64
2023/01/30 06:20:13;;;;;;;;;;;;;;;1.39;100.00;98148.59;5149010;27;19919;-64
2023/01/30 06:22:39;;;;;;;;;;;;;;;1.37;100.00;98127.72;5162104;27;19924;-64
2023/01/30 06:25:07;;;;;;;;;;;;;;;1.24;100.00;98134.78;5158287;27;20023;-64
2023/01/30 06:27:35;;;;;;;;;;;;;;;1.18;100.00;98128.47;5159971;27;20381;-64
2023/01/30 06:30:03;;;;;;;;;;;;;;;1.19;100.00;98116.13;5161276;27;19920;-64
2023/01/30 06:32:33;;;;;;;;;;;;;;;1.13;100.00;98109.84;5170196;27;19954;-63
2023/01/30 06:35:00;;;;;;;;;;;;;;;1.17;100.00;98097.13;5160702;27;19927;-64
2023/01/30 06:37:31;;;;;;;;;;;;;;;1.24;100.00;98113.75;5154797;27;19930;-64
2023/01/30 06:40:03;;;;;;;;;;;;;;;1.30;100.00;98118.22;5152098;27;19935;-64
2023/01/30 06:42:39;;;;;;;;;;;;;;;1.23;100.00;98112.94;5121495;28;19934;-63
2023/01/30 06:45:08;;;;;;;;;;;;;;;1.17;100.00;98118.16;5154204;27;19927;-63
2023/01/30 06:47:37;;;;;;;;;;;;;;;1.23;100.00;98118.19;5146553;27;19930;-63
2023/01/30 06:50:34;;;;;;;;;;;;;;;1.26;100.00;98114.34;5133459;27;19927;-63
2023/01/30 06:53:46;;;;;;;;;;;;;;;1.42;100.00;98111.34;5123840;27;19927;-63
2023/01/30 07:00:19;;;;;;;;;;;;;;;1.13;100.00;98112.47;5109358;27;19931;-63
2023/01/30 07:02:46;;;;;;;;;;;;;;;1.22;100.00;98116.56;5140835;27;19932;-63
2023/01/30 07:05:13;;;;;;;;;;;;;;;1.24;100.00;98113.75;5149565;27;19968;-63
2023/01/30 07:07:40;;;;;;;;;;;;;;;1.27;100.00;98119.38;5149703;27;19920;-63
2023/01/30 07:10:11;;;;;;;;;;;;;;;1.23;100.00;98114.75;5154376;27;19955;-63
2023/01/30 07:12:37;;;;;;;;;;;;;;;1.03;100.00;98112.03;5145283;27;19923;-64
2023/01/30 07:15:05;;;;;;;;;;;;;;;1.09;100.00;98106.81;5152052;27;20038;-63
2023/01/30 07:17:33;;;;;;;;;;;;;;;1.17;100.00;98118.16;5153762;27;19919;-63
2023/01/30 07:20:00;;;;;;;;;;;;;;;1.17;100.00;98116.34;5149863;27;19998;-63
2023/01/30 07:22:30;;;;;;;;;;;;;;;1.26;100.00;98112.53;5145893;27;19927;-63
2023/01/30 07:24:59;;;;;;;;;;;;;;;1.30;100.00;98110.31;5143368;27;19920;-63
2023/01/30 07:27:26;;;;;;;;;;;;;;;1.24;100.00;98105.84;5144602;27;19928;-63
2023/01/30 07:30:38;;;;;;;;;;;;;;;1.30;100.00;98097.16;5159893;27;19919;-63
2023/01/30 07:46:59;;;;;;;;;;;;;;;1.36;100.00;98062.94;4913179;29;20028;-63
2023/01/30 07:49:27;;;;;;;;;;;;;;;1.37;100.00;98071.66;5039719;28;19921;-63
2023/01/30 07:52:18;;;;;;;;;;;;;;;1.45;100.00;98074.09;5151690;27;19928;-63
2023/01/30 07:55:15;;;;;;;;;;;;;;;1.42;100.00;98066.63;5146402;27;19927;-63
2023/01/30 08:01:22;;;;;;;;;;;;;;;1.43;100.00;98082.19;5113656;27;19934;-63
2023/01/30 08:03:52;;;;;;;;;;;;;;;1.50;100.00;98077.75;5146025;27;19923;-63
2023/01/30 08:06:20;;;;;;;;;;;;;;;1.45;100.00;98071.47;5154828;27;19967;-63
2023/01/30 08:08:47;;;;;;;;;;;;;;;1.51;100.00;98066.22;5149571;27;19928;-63
2023/01/30 08:11:14;;;;;;;;;;;;;;;1.51;100.00;98078.56;5150063;27;20022;-63
2023/01/30 08:13:41;;;;;;;;;;;;;;;1.44;100.00;98080.38;5138304;27;19924;-64
2023/01/30 08:16:08;;;;;;;;;;;;;;;1.50;100.00;98076.94;5136906;27;20002;-64
2023/01/30 08:18:35;;;;;;;;;;;;;;;1.59;100.00;98084.44;5143419;27;20003;-64
2023/01/30 08:21:05;;;;;;;;;;;;;;;1.60;100.00;98082.63;5158660;27;19919;-63
2023/01/30 08:23:34;;;;;;;;;;;;;;;1.70;100.00;98098.00;5148707;27;19942;-64
2023/01/30 08:33:03;;;;;;;;;;;;;;;1.71;100.00;98079.38;4985838;28;19937;-62
2023/01/30 08:42:49;;;;;;;;;;;;;;;1.67;100.00;98067.66;4918407;28;19926;-64
2023/01/30 08:45:15;;;;;;;;;;;;;;;1.69;100.00;98049.00;4993358;28;19932;-64
2023/01/30 08:47:42;;;;;;;;;;;;;;;1.61;100.00;98053.44;4990400;28;19961;-64
2023/01/30 08:50:10;;;;;;;;;;;;;;;1.57;100.00;98052.25;5096599;27;19923;-64
2023/01/30 08:52:37;;;;;;;;;;;;;;;1.71;100.00;98041.69;5147271;27;19924;-64
2023/01/30 08:55:08;;;;;;;;;;;;;;;1.56;100.00;98047.19;5146929;27;19923;-64
2023/01/30 08:57:35;;;;;;;;;;;;;;;1.61;100.00;98036.84;5143642;27;19927;-64
2023/01/30 09:00:05;;;;;;;;;;;;;;;1.55;100.00;98032.38;5131871;27;19927;-64
2023/01/30 09:02:32;;;;;;;;;;;;;;;1.62;100.00;98017.41;5153553;27;20402;-64
2023/01/30 09:04:59;;;;;;;;;;;;;;;1.52;100.00;98017.81;5149007;27;19990;-63
2023/01/30 09:07:27;;;;;;;;;;;;;;;1.72;100.00;98017.00;5150962;27;19927;-64
2023/01/30 09:09:57;;;;;;;;;;;;;;;1.75;100.00;98012.16;5123421;27;19946;-64
2023/01/30 09:12:24;;;;;;;;;;;;;;;1.89;100.00;98005.81;5124333;27;19934;-64
2023/01/30 09:14:52;;;;;;;;;;;;;;;1.71;100.00;98004.84;5116887;28;19958;-64
2023/01/30 09:17:20;;;;;;;;;;;;;;;1.69;100.00;97989.28;5151279;27;19933;-64
2023/01/30 09:19:47;;;;;;;;;;;;;;;1.79;100.00;97991.47;5113178;27;19973;-64
2023/01/30 09:22:14;;;;;;;;;;;;;;;1.78;100.00;97993.31;5127952;28;19924;-63
2023/01/30 09:24:44;;;;;;;;;;;;;;;1.71;100.00;97979.34;5149578;27;19924;-64
2023/01/30 09:27:13;;;;;;;;;;;;;;;1.74;100.00;97968.38;5146442;27;19946;-64
2023/01/30 09:29:41;;;;;;;;;;;;;;;1.86;100.00;97960.66;5141170;27;19972;-64
2023/01/30 09:32:08;;;;;;;;;;;;;;;1.97;100.00;97962.69;5141353;28;19947;-64
2023/01/30 09:34:36;;;;;;;;;;;;;;;1.91;100.00;97974.84;5136876;28;19923;-63
2023/01/30 09:40:22;;;;;;;;;;;;;;;1.99;100.00;97963.28;5151187;27;19944;-64
2023/01/30 09:43:05;;;;;;;;;;;;;;;1.95;100.00;97954.97;5145448;27;19931;-64
2023/01/30 09:45:38;;;;;;;;;;;;;;;1.92;100.00;97949.34;5124458;27;19966;-64
2023/01/30 09:48:11;;;;;;;;;;;;;;;1.92;100.00;97955.38;5141322;28;20027;-64
2023/01/30 09:50:49;;;;;;;;;;;;;;;1.93;100.00;97957.00;5141511;27;19955;-64
2023/01/30 09:53:25;;;;;;;;;;;;;;;1.92;100.00;97939.59;5156463;27;19934;-64
2023/01/30 09:59:27;;;;;;;;;;;;;;;1.96;100.00;97934.72;5121821;27;19942;-63
2023/01/30 10:09:03;;;;;;;;;;;;;;;2.03;100.00;97933.69;5049243;28;20517;-63
2023/01/30 10:11:43;;;;;;;;;;;;;;;2.03;100.00;97925.78;5134308;27;20367;-63
2023/01/30 10:14:18;;;;;;;;;;;;;;;2.09;100.00;97922.31;5148630;27;19962;-63
2023/01/30 10:16:54;;;;;;;;;;;;;;;2.00;100.00;97915.66;5141454;27;19978;-63
2023/01/30 10:19:39;;;;;;;;;;;;;;;1.98;100.00;97915.03;5123142;27;19931;-64
2023/01/30 10:22:12;;;;;;;;;;;;;;;2.08;100.00;97918.06;5149384;27;19924;-64
2023/01/30 10:24:46;;;;;;;;;;;;;;;2.13;100.00;97922.72;5151133;27;19939;-64
2023/01/30 10:27:16;;;;;;;;;;;;;;;2.13;100.00;97920.09;5156527;27;19923;-64
2023/01/30 10:29:47;;;;;;;;;;;;;;;2.16;100.00;97909.13;5146482;27;19934;-64
2023/01/30 10:32:16;;;;;;;;;;;;;;;2.04;100.00;97918.69;5131654;27;19924;-64
2023/01/30 10:34:46;;;;;;;;;;;;;;;2.12;100.00;97924.53;5157511;27;19920;-63
2023/01/30 10:43:57;;;;;;;;;;;;;;;2.13;100.00;97910.34;5137209;27;19947;-63
2023/01/30 10:46:29;;;;;;;;;;;;;;;2.13;100.00;97920.91;5150848;27;19930;-63
2023/01/30 10:49:15;;;;;;;;;;;;;;;2.06;100.00;97903.47;5152199;27;20246;-64
2023/01/30 10:51:47;;;;;;;;;;;;;;;2.22;100.00;97900.38;5145667;27;19923;-64
2023/01/30 10:54:17;;;;;;;;;;;;;;;2.20;100.00;97898.97;5131831;27;19931;-64
2023/01/30 10:56:50;;;;;;;;;;;;;;;2.02;100.00;97897.81;5154159;27;19931;-64
2023/01/30 10:59:29;;;;;;;;;;;;;;;2.17;100.00;97890.47;5152427;27;19939;-64
2023/01/30 11:02:12;;;;;;;;;;;;;;;2.18;100.00;97896.53;5146654;27;19931;-64
2023/01/30 11:04:49;;;;;;;;;;;;;;;2.27;100.00;97894.47;5144074;27;19961;-64
2023/01/30 11:07:18;;;;;;;;;;;;;;;2.18;100.00;97886.00;5136126;27;19949;-64
2023/01/30 11:09:45;;;;;;;;;;;;;;;2.15;100.00;97883.78;5154193;27;19924;-64
2023/01/30 11:12:13;;;;;;;;;;;;;;;2.10;100.00;97881.75;5133554;27;19989;-65
2023/01/30 11:14:54;;;;;;;;;;;;;;;2.11;100.00;97880.75;5145155;27;20288;-65
2023/01/30 11:17:24;;;;;;;;;;;;;;;2.21;100.00;97880.31;5144413;27;19962;-65
2023/01/30 11:19:55;;;;;;;;;;;;;;;2.17;100.00;97885.19;5141881;27;19924;-63
2023/01/30 11:22:33;;;;;;;;;;;;;;;2.23;100.00;97883.53;5156001;27;19923;-64
2023/01/30 11:25:01;;;;;;;;;;;;;;;2.14;100.00;97880.34;5151030;27;19927;-65
2023/01/30 11:27:29;;;;;;;;;;;;;;;2.27;100.00;97883.94;5147736;27;19927;-64
2023/01/30 11:30:05;;;;;;;;;;;;;;;2.21;100.00;97868.97;5143400;27;19958;-64
2023/01/30 11:32:38;;;;;;;;;;;;;;;2.17;100.00;97864.13;5145953;27;19934;-65
2023/01/30 11:35:25;;;;;;;;;;;;;;;2.28;100.00;97864.47;5151728;27;19988;-64
2023/01/30 11:37:53;;;;;;;;;;;;;;;2.21;100.00;97850.53;5153516;27;19923;-64
2023/01/30 11:40:28;;;;;;;;;;;;;;;2.25;100.00;97854.34;5150353;27;19926;-66
2023/01/30 11:46:04;;;;;;;;;;;;;;;2.34;100.00;97851.25;5142818;27;19930;-65
2023/01/30 11:48:32;;;;;;;;;;;;;;;2.15;100.00;97839.00;5145252;27;19999;-65
2023/01/30 11:51:03;;;;;;;;;;;;;;;2.30;100.00;97847.44;5147233;27;19924;-65
2023/01/30 11:53:33;;;;;;;;;;;;;;;2.25;100.00;97864.91;5148387;27;19924;-65
2023/01/30 11:56:04;;;;;;;;;;;;;;;2.26;100.00;97856.75;5149901;27;19923;-64
2023/01/30 11:58:33;;;;;;;;;;;;;;;2.22;100.00;97854.78;5144562;27;19927;-64
2023/01/30 12:01:05;;;;;;;;;;;;;;;2.21;100.00;97848.69;5139598;27;19930;-65
2023/01/30 12:03:37;;;;;;;;;;;;;;;2.15;100.00;97849.53;5152651;27;19924;-64
2023/01/30 12:06:07;;;;;;;;;;;;;;;2.29;100.00;97851.06;5131310;27;19924;-63
2023/01/30 12:08:39;;;;;;;;;;;;;;;2.24;100.00;97855.38;5145413;27;19923;-64
2023/01/30 12:11:24;;;;;;;;;;;;;;;2.27;100.00;97852.31;5142562;27;19924;-65
2023/01/30 12:13:52;;;;;;;;;;;;;;;2.35;100.00;97844.97;5130933;28;19924;-67
2023/01/30 12:16:22;;;;;;;;;;;;;;;2.31;100.00;97842.97;5128258;28;19924;-64
2023/01/30 12:18:57;;;;;;;;;;;;;;;2.39;100.00;97827.69;5150189;27;20291;-65
2023/01/30 12:21:41;;;;;;;;;;;;;;;2.31;100.00;97838.50;5148002;27;20287;-65
2023/01/30 12:24:15;;;;;;;;;;;;;;;2.35;100.00;97836.25;5143852;27;19967;-65
2023/01/30 12:26:50;;;;;;;;;;;;;;;2.34;100.00;97842.53;5142391;27;19930;-65
2023/01/30 12:29:30;;;;;;;;;;;;;;;2.28;100.00;97832.84;5143440;27;20552;-65
2023/01/30 12:32:06;;;;;;;;;;;;;;;2.20;100.00;97818.09;5145209;27;20367;-64
2023/01/30 12:34:33;;;;;;;;;;;;;;;2.24;100.00;97824.56;5156080;27;20011;-64
2023/01/30 12:37:07;;;;;;;;;;;;;;;2.23;100.00;97814.25;5152567;27;19923;-64
2023/01/30 12:39:48;;;;;;;;;;;;;;;2.22;100.00;97828.44;5144188;27;19928;-64
2023/01/30 12:42:23;;;;;;;;;;;;;;;2.28;100.00;97817.84;5139394;27;19924;-64
2023/01/30 12:45:23;;;;;;;;;;;;;;;2.28;100.00;97815.22;5147709;27;19934;-63
2023/01/30 12:48:30;;;;;;;;;;;;;;;2.28;100.00;97825.75;5128315;27;19953;-65
2023/01/30 12:51:05;;;;;;;;;;;;;;;2.37;100.00;97815.75;5140439;27;19919;-64
2023/01/30 12:53:37;;;;;;;;;;;;;;;2.26;100.00;97827.00;5156940;27;19945;-64
2023/01/30 12:56:37;;;;;;;;;;;;;;;;;;;;;
2023/01/30 12:59:22;;;;;;;;;;;;;;;2.34;100.00;97835.44;5141747;27;19923;-64
2023/01/30 13:01:56;;;;;;;;;;;;;;;2.40;100.00;97849.59;5138471;27;19951;-64
2023/01/30 13:04:29;;;;;;;;;;;;;;;2.32;100.00;97849.88;5144324;27;19920;-64
2023/01/30 13:07:08;;;;;;;;;;;;;;;2.33;100.00;97846.19;5145771;27;19924;-64
2023/01/30 13:09:51;;;;;;;;;;;;;;;2.38;100.00;97849.00;5156799;27;19927;-64
2023/01/30 13:12:30;;;;;;;;;;;;;;;2.31;100.00;97845.59;5148391;27;19945;-64
2023/01/30 13:15:03;;;;;;;;;;;;;;;2.32;100.00;97848.00;5143477;27;20057;-64
2023/01/30 13:17:47;;;;;;;;;;;;;;;2.33;100.00;97846.19;5143123;27;20019;-64
2023/01/30 13:20:19;;;;;;;;;;;;;;;2.41;100.00;97859.13;5147068;27;19931;-65
2023/01/30 13:22:52;;;;;;;;;;;;;;;2.42;100.00;97871.28;5144896;27;19927;-64
2023/01/30 13:25:25;;;;;;;;;;;;;;;2.44;100.00;97861.34;5147792;27;19949;-64
2023/01/30 13:27:55;;;;;;;;;;;;;;;2.39;100.00;97859.34;5135259;27;19944;-64
2023/01/30 13:30:24;;;;;;;;;;;;;;;2.46;100.00;97875.09;5122818;27;19927;-64
2023/01/30 13:32:59;;;;;;;;;;;;;;;2.43;100.00;97873.72;5118506;28;19941;-64
2023/01/30 13:35:28;;;;;;;;;;;;;;;2.42;100.00;97879.19;5152868;27;20022;-65
2023/01/30 13:38:00;;;;;;;;;;;;;;;2.43;100.00;97872.91;5151603;27;19923;-65
2023/01/30 13:40:37;;;;;;;;;;;;;;;2.44;100.00;97869.25;5126192;27;20002;-64
2023/01/30 13:43:08;;;;;;;;;;;;;;;2.46;100.00;97856.66;5141022;27;19924;-65
2023/01/30 13:45:47;;;;;;;;;;;;;;;2.34;100.00;97847.81;5142682;27;19931;-63
2023/01/30 13:48:28;;;;;;;;;;;;;;;2.33;100.00;97851.47;5144151;27;19927;-64
2023/01/30 13:51:01;;;;;;;;;;;;;;;2.35;100.00;97849.44;5155675;27;19995;-64
2023/01/30 13:53:33;;;;;;;;;;;;;;;2.47;100.00;97859.09;5151656;27;19958;-64
2023/01/30 13:56:12;;;;;;;;;;;;;;;2.44;100.00;97869.25;5147329;27;19935;-64
2023/01/30 13:58:44;;;;;;;;;;;;;;;2.44;100.00;97863.97;5146472;27;19958;-65
2023/01/30 14:01:12;;;;;;;;;;;;;;;2.48;100.00;97859.88;5151118;27;19928;-64
2023/01/30 14:03:45;;;;;;;;;;;;;;;2.42;100.00;97844.91;5152220;27;19950;-64
2023/01/30 14:06:31;;;;;;;;;;;;;;;2.46;100.00;97836.38;5149739;27;20577;-64
2023/01/30 14:12:45;;;;;;;;;;;;;;;2.61;100.00;97849.25;5133651;27;19919;-65
2023/01/30 14:15:27;;;;;;;;;;;;;;;2.68;100.00;97848.19;5148751;27;20013;-64
2023/01/30 14:18:19;;;;;;;;;;;;;;;2.68;100.00;97840.28;5118736;27;19986;-64
2023/01/30 14:21:11;;;;;;;;;;;;;;;2.71;100.00;97849.59;5141372;27;20004;-64
2023/01/30 14:23:39;;;;;;;;;;;;;;;2.68;100.00;97857.94;5143831;27;19951;-65
2023/01/30 14:26:09;;;;;;;;;;;;;;;2.71;100.00;97857.50;5146520;27;19943;-64
2023/01/30 14:28:49;;;;;;;;;;;;;;;2.61;100.00;97850.06;5155954;27;19944;-64
2023/01/30 14:31:44;;;;;;;;;;;;;;;2.65;100.00;97834.63;5141662;27;19943;-64
2023/01/30 14:37:51;;;;;;;;;;;;;;;2.66;100.00;97854.72;5089326;28;19924;-64
2023/01/30 14:40:30;;;;;;;;;;;;;;;2.68;100.00;97855.28;5131426;27;20048;-64
2023/01/30 14:43:16;;;;;;;;;;;;;;;2.72;100.00;97856.50;5141047;27;19924;-64
2023/01/30 14:46:34;;;;;;;;;;;;;;;2.68;100.00;97869.28;5123125;28;20019;-64
2023/01/30 14:55:58;;;;;;;;;;;;;;;2.67;100.00;97893.22;5139978;27;19928;-63
2023/01/30 14:58:25;;;;;;;;;;;;;;;2.77;100.00;97883.00;5145671;27;19951;-64
2023/01/30 15:00:59;;;;;;;;;;;;;;;2.76;100.00;97877.94;5148111;27;19994;-64
2023/01/30 15:03:27;;;;;;;;;;;;;;;2.78;100.00;97892.56;5138685;27;19923;-64
2023/01/30 15:06:06;;;;;;;;;;;;;;;2.76;100.00;97899.84;5153893;27;19951;-64
2023/01/30 15:08:50;;;;;;;;;;;;;;;2.69;100.00;97907.81;5143736;27;19923;-64
2023/01/30 15:14:32;;;;;;;;;;;;;;;2.72;100.00;97919.78;5035180;28;19926;-64
2023/01/30 15:17:09;;;;;;;;;;;;;;;2.68;100.00;97923.84;5144907;27;19979;-64
2023/01/30 15:19:51;;;;;;;;;;;;;;;2.80;100.00;97916.88;5130446;27;19920;-64
2023/01/30 15:22:26;;;;;;;;;;;;;;;2.69;100.00;97914.94;5120145;27;19919;-64
2023/01/30 15:25:07;;;;;;;;;;;;;;;2.72;100.00;97939.00;5160183;27;20405;-64
2023/01/30 15:27:38;;;;;;;;;;;;;;;2.81;100.00;97942.22;5141708;27;19977;-65
2023/01/30 15:30:19;;;;;;;;;;;;;;;2.82;100.00;97946.47;5150589;27;19931;-64
2023/01/30 15:32:46;;;;;;;;;;;;;;;2.80;100.00;97939.78;5128210;27;19923;-64
2023/01/30 15:35:27;;;;;;;;;;;;;;;2.87;100.00;97951.94;5148491;27;19923;-64
2023/01/30 15:37:56;;;;;;;;;;;;;;;2.84;100.00;97946.28;5148473;27;19990;-65
2023/01/30 15:54:26;;;;;;;;;;;;;;;2.79;100.00;97936.34;5141164;27;19959;-63
2023/01/30 15:57:29;;;;;;;;;;;;;;;2.83;100.00;97955.19;5116671;28;19935;-64
2023/01/30 15:59:59;;;;;;;;;;;;;;;2.75;100.00;97951.00;5129535;27;19931;-64
2023/01/30 16:02:29;;;;;;;;;;;;;;;2.75;100.00;97977.38;5145982;27;19951;-64
2023/01/30 16:05:19;;;;;;;;;;;;;;;2.87;100.00;97986.22;5156552;27;19927;-64
2023/01/30 16:07:50;;;;;;;;;;;;;;;2.88;100.00;97987.81;5149537;27;20472;-64
2023/01/30 16:10:23;;;;;;;;;;;;;;;2.84;100.00;97986.63;5131386;27;19924;-64
2023/01/30 16:12:53;;;;;;;;;;;;;;;2.88;100.00;97987.81;5145182;27;19992;-64
2023/01/30 16:19:12;;;;;;;;;;;;;;;2.86;100.00;97995.13;5072791;28;20034;-63
2023/01/30 16:25:24;;;;;;;;;;;;;;;2.91;100.00;98012.97;5097875;28;20366;-64
2023/01/30 16:27:59;;;;;;;;;;;;;;;2.83;100.00;98005.28;5133039;27;19958;-64
2023/01/30 16:30:30;;;;;;;;;;;;;;;3.00;100.00;98012.50;5144193;27;19928;-64
2023/01/30 16:32:57;;;;;;;;;;;;;;;2.91;100.00;98021.69;5145745;27;19990;-64
2023/01/30 16:35:31;;;;;;;;;;;;;;;2.90;100.00;98024.53;5146763;27;19954;-64
2023/01/30 16:37:59;;;;;;;;;;;;;;;2.91;100.00;98034.88;5136899;27;19924;-64
2023/01/30 16:40:32;;;;;;;;;;;;;;;2.94;100.00;98037.09;5144437;27;19923;-64
2023/01/30 16:43:21;;;;;;;;;;;;;;;2.97;100.00;98036.66;5147724;27;19977;-64
2023/01/30 16:46:24;;;;;;;;;;;;;;;2.97;100.00;98049.84;5142378;27;19981;-64
2023/01/30 16:49:05;;;;;;;;;;;;;;;2.95;100.00;98043.97;5151738;27;19935;-64
2023/01/30 16:51:32;;;;;;;;;;;;;;;2.92;100.00;98041.78;5130254;27;19957;-64
2023/01/30 16:54:04;;;;;;;;;;;;;;;2.96;100.00;98053.53;5144798;27;19923;-64
2023/01/30 16:56:38;;;;;;;;;;;;;;;3.03;100.00;98072.75;5144381;27;19987;-64
2023/01/30 16:59:21;;;;;;;;;;;;;;;2.98;100.00;98062.03;5148531;27;19930;-64
2023/01/30 17:01:52;;;;;;;;;;;;;;;2.95;100.00;98051.91;5144353;27;19924;-64
2023/01/30 17:04:27;;;;;;;;;;;;;;;2.99;100.00;98063.66;5147073;27;19923;-64
2023/01/30 17:07:00;;;;;;;;;;;;;;;2.99;100.00;98068.13;5153690;27;19990;-64
2023/01/30 17:09:44;;;;;;;;;;;;;;;2.98;100.00;98064.66;5144498;27;19954;-65
2023/01/30 17:12:33;;;;;;;;;;;;;;;2.97;100.00;98055.13;5116349;28;19934;-64
2023/01/30 17:15:20;;;;;;;;;;;;;;;3.10;100.00;98056.88;5135530;27;20019;-64
2023/01/30 17:17:51;;;;;;;;;;;;;;;3.01;100.00;98064.25;5140100;27;19953;-64
2023/01/30 17:20:18;;;;;;;;;;;;;;;3.06;100.00;98053.06;5153591;27;19968;-65
2023/01/30 17:22:56;;;;;;;;;;;;;;;3.07;100.00;98044.13;5142626;27;19928;-64
2023/01/30 17:25:34;;;;;;;;;;;;;;;3.02;100.00;98057.97;5126751;28;19941;-64
2023/01/30 17:28:09;;;;;;;;;;;;;;;3.06;100.00;98072.34;5149155;27;19926;-64
2023/01/30 17:30:42;;;;;;;;;;;;;;;2.98;100.00;98067.31;5149525;27;19923;-64
2023/01/30 17:33:11;;;;;;;;;;;;;;;2.98;100.00;98084.97;5145933;27;19966;-64
2023/01/30 17:35:44;;;;;;;;;;;;;;;3.05;100.00;98078.66;5141738;27;19953;-63
2023/01/30 17:38:12;;;;;;;;;;;;;;;3.07;100.00;98075.78;5141469;28;19974;-63
2023/01/30 17:40:42;;;;;;;;;;;;;;;3.00;100.00;98073.16;5155848;27;19961;-64
2023/01/30 17:43:12;;;;;;;;;;;;;;;3.04;100.00;98078.84;5152965;27;19952;-64
2023/01/30 17:45:49;;;;;;;;;;;;;;;2.97;100.00;98091.28;5147893;27;19967;-64
2023/01/30 17:48:17;;;;;;;;;;;;;;;3.08;100.00;98085.31;5145949;27;19962;-64
2023/01/30 17:50:45;;;;;;;;;;;;;;;3.08;100.00;98104.59;5141304;27;19962;-64
2023/01/30 17:56:36;;;;;;;;;;;;;;;3.12;100.00;98111.09;5111670;28;19935;-64
2023/01/30 17:59:15;;;;;;;;;;;;;;;3.04;100.00;98108.66;5139604;27;19924;-64
2023/01/30 18:01:43;;;;;;;;;;;;;;;3.07;100.00;98097.69;5157414;27;20475;-63
2023/01/30 18:04:14;;;;;;;;;;;;;;;3.09;100.00;98105.41;5145491;27;19927;-65
2023/01/30 18:06:43;;;;;;;;;;;;;;;3.22;100.00;98115.88;5147441;27;20003;-65
2023/01/30 18:09:14;;;;;;;;;;;;;;;3.14;100.00;98121.41;5147748;27;19927;-64
2023/01/30 18:11:41;;;;;;;;;;;;;;;3.13;100.00;98114.50;5149105;27;19936;-65
2023/01/30 18:14:11;;;;;;;;;;;;;;;3.15;100.00;98113.31;5146748;27;19927;-65
2023/01/30 18:16:38;;;;;;;;;;;;;;;3.17;100.00;98111.25;5142748;27;19923;-65
2023/01/30 18:19:09;;;;;;;;;;;;;;;3.07;100.00;98107.44;5140299;27;19968;-65
2023/01/30 18:21:48;;;;;;;;;;;;;;;3.10;100.00;98110.47;5137901;27;19939;-65
2023/01/30 18:24:18;;;;;;;;;;;;;;;3.12;100.00;98095.25;5147690;27;19919;-65